sensor_id;sensor_type;location;lat;lon;timestamp;P1;durP1;ratioP1;P2;durP2;ratioP2
64957;SDS011;51486;50.232;19.208;2023-04-23T00:01:51;24.57;;;9.13;;
64957;SDS011;51486;50.232;19.208;2023-04-23T00:04:46;20.10;;;7.73;;
64957;SDS011;51486;50.232;19.208;2023-04-23T00:07:35;35.97;;;12.70;;
64957;SDS011;51486;50.232;19.208;2023-04-23T00:10:21;33.30;;;12.13;;
64957;SDS011;51486;50.232;19.208;2023-04-23T00:13:07;38.37;;;14.10;;
64957;SDS011;51486;50.232;19.208;2023-04-23T00:15:54;46.00;;;16.00;;
64957;SDS011;51486;50.232;19.208;2023-04-23T00:18:41;48.07;;;17.03;;
64957;SDS011;51486;50.232;19.208;2023-04-23T00:21:27;37.53;;;15.73;;
64957;SDS011;51486;50.232;19.208;2023-04-23T00:24:12;33.50;;;14.57;;
64957;SDS011;51486;50.232;19.208;2023-04-23T00:26:58;40.77;;;15.73;;
64957;SDS011;51486;50.232;19.208;2023-04-23T00:29:44;32.93;;;14.30;;
64957;SDS011;51486;50.232;19.208;2023-04-23T00:32:30;40.03;;;15.37;;
64957;SDS011;51486;50.232;19.208;2023-04-23T00:35:16;39.37;;;13.67;;
64957;SDS011;51486;50.232;19.208;2023-04-23T00:38:06;43.47;;;16.00;;
64957;SDS011;51486;50.232;19.208;2023-04-23T00:40:51;34.23;;;15.67;;
64957;SDS011;51486;50.232;19.208;2023-04-23T00:43:37;36.90;;;14.60;;
64957;SDS011;51486;50.232;19.208;2023-04-23T00:46:26;41.37;;;16.10;;
64957;SDS011;51486;50.232;19.208;2023-04-23T00:49:13;38.83;;;13.97;;
64957;SDS011;51486;50.232;19.208;2023-04-23T00:51:59;35.27;;;14.43;;
64957;SDS011;51486;50.232;19.208;2023-04-23T00:54:46;25.00;;;11.53;;
64957;SDS011;51486;50.232;19.208;2023-04-23T00:57:36;30.17;;;13.20;;
64957;SDS011;51486;50.232;19.208;2023-04-23T01:00:22;24.17;;;11.50;;
64957;SDS011;51486;50.232;19.208;2023-04-23T01:03:08;28.53;;;11.27;;
64957;SDS011;51486;50.232;19.208;2023-04-23T01:05:54;26.97;;;9.50;;
64957;SDS011;51486;50.232;19.208;2023-04-23T01:08:44;20.00;;;7.90;;
64957;SDS011;51486;50.232;19.208;2023-04-23T01:11:31;20.03;;;8.23;;
64957;SDS011;51486;50.232;19.208;2023-04-23T01:14:18;22.10;;;8.90;;
64957;SDS011;51486;50.232;19.208;2023-04-23T01:17:04;19.77;;;9.07;;
64957;SDS011;51486;50.232;19.208;2023-04-23T01:19:53;19.30;;;8.00;;
64957;SDS011;51486;50.232;19.208;2023-04-23T01:22:38;14.17;;;7.27;;
64957;SDS011;51486;50.232;19.208;2023-04-23T01:25:25;15.73;;;7.47;;
64957;SDS011;51486;50.232;19.208;2023-04-23T01:28:11;25.83;;;8.47;;
64957;SDS011;51486;50.232;19.208;2023-04-23T01:30:57;21.03;;;9.73;;
64957;SDS011;51486;50.232;19.208;2023-04-23T01:33:44;25.57;;;10.67;;
64957;SDS011;51486;50.232;19.208;2023-04-23T01:36:31;21.17;;;10.13;;
64957;SDS011;51486;50.232;19.208;2023-04-23T01:39:17;30.60;;;13.07;;
64957;SDS011;51486;50.232;19.208;2023-04-23T01:42:03;29.07;;;11.13;;
64957;SDS011;51486;50.232;19.208;2023-04-23T01:44:51;25.77;;;12.27;;
64957;SDS011;51486;50.232;19.208;2023-04-23T01:47:37;26.90;;;10.97;;
64957;SDS011;51486;50.232;19.208;2023-04-23T01:50:24;23.83;;;8.97;;
64957;SDS011;51486;50.232;19.208;2023-04-23T01:53:12;18.83;;;8.53;;
64957;SDS011;51486;50.232;19.208;2023-04-23T01:55:59;18.23;;;8.07;;
64957;SDS011;51486;50.232;19.208;2023-04-23T01:58:47;19.93;;;8.07;;
64957;SDS011;51486;50.232;19.208;2023-04-23T02:01:45;16.17;;;7.83;;
64957;SDS011;51486;50.232;19.208;2023-04-23T02:04:31;17.00;;;7.73;;
64957;SDS011;51486;50.232;19.208;2023-04-23T02:07:18;12.90;;;7.13;;
64957;SDS011;51486;50.232;19.208;2023-04-23T02:10:05;19.60;;;8.30;;
64957;SDS011;51486;50.232;19.208;2023-04-23T02:12:52;19.90;;;9.10;;
64957;SDS011;51486;50.232;19.208;2023-04-23T02:15:38;20.60;;;8.57;;
64957;SDS011;51486;50.232;19.208;2023-04-23T02:18:24;24.67;;;9.30;;
64957;SDS011;51486;50.232;19.208;2023-04-23T02:21:11;18.80;;;8.80;;
64957;SDS011;51486;50.232;19.208;2023-04-23T02:23:57;24.07;;;9.43;;
64957;SDS011;51486;50.232;19.208;2023-04-23T02:26:43;25.90;;;9.90;;
64957;SDS011;51486;50.232;19.208;2023-04-23T02:29:29;26.70;;;8.57;;
64957;SDS011;51486;50.232;19.208;2023-04-23T02:32:14;13.63;;;7.10;;
64957;SDS011;51486;50.232;19.208;2023-04-23T02:35:00;16.93;;;7.53;;
64957;SDS011;51486;50.232;19.208;2023-04-23T02:37:46;17.43;;;6.87;;
64957;SDS011;51486;50.232;19.208;2023-04-23T02:40:32;17.90;;;7.13;;
64957;SDS011;51486;50.232;19.208;2023-04-23T02:43:18;20.13;;;6.77;;
64957;SDS011;51486;50.232;19.208;2023-04-23T02:46:04;12.53;;;6.20;;
64957;SDS011;51486;50.232;19.208;2023-04-23T02:48:53;14.40;;;7.50;;
64957;SDS011;51486;50.232;19.208;2023-04-23T02:51:40;13.87;;;5.83;;
64957;SDS011;51486;50.232;19.208;2023-04-23T02:54:33;15.87;;;7.00;;
64957;SDS011;51486;50.232;19.208;2023-04-23T02:57:21;17.30;;;7.60;;
64957;SDS011;51486;50.232;19.208;2023-04-23T03:00:07;12.60;;;6.27;;
64957;SDS011;51486;50.232;19.208;2023-04-23T03:02:53;17.87;;;7.07;;
64957;SDS011;51486;50.232;19.208;2023-04-23T03:05:39;20.30;;;6.60;;
64957;SDS011;51486;50.232;19.208;2023-04-23T03:08:25;18.10;;;7.90;;
64957;SDS011;51486;50.232;19.208;2023-04-23T03:11:11;18.20;;;7.60;;
64957;SDS011;51486;50.232;19.208;2023-04-23T03:13:58;21.53;;;7.43;;
64957;SDS011;51486;50.232;19.208;2023-04-23T03:16:43;13.10;;;6.87;;
64957;SDS011;51486;50.232;19.208;2023-04-23T03:19:29;14.63;;;7.13;;
64957;SDS011;51486;50.232;19.208;2023-04-23T03:22:15;16.20;;;6.87;;
64957;SDS011;51486;50.232;19.208;2023-04-23T03:25:00;13.00;;;6.60;;
64957;SDS011;51486;50.232;19.208;2023-04-23T03:27:46;22.17;;;7.73;;
64957;SDS011;51486;50.232;19.208;2023-04-23T03:30:32;13.77;;;7.00;;
64957;SDS011;51486;50.232;19.208;2023-04-23T03:33:18;27.73;;;6.87;;
64957;SDS011;51486;50.232;19.208;2023-04-23T03:36:04;14.47;;;7.23;;
64957;SDS011;51486;50.232;19.208;2023-04-23T03:38:50;16.70;;;7.20;;
64957;SDS011;51486;50.232;19.208;2023-04-23T03:41:36;18.13;;;6.77;;
64957;SDS011;51486;50.232;19.208;2023-04-23T03:44:21;15.30;;;6.97;;
64957;SDS011;51486;50.232;19.208;2023-04-23T03:47:08;15.30;;;6.93;;
64957;SDS011;51486;50.232;19.208;2023-04-23T03:49:53;21.17;;;9.37;;
64957;SDS011;51486;50.232;19.208;2023-04-23T03:52:40;18.50;;;7.50;;
64957;SDS011;51486;50.232;19.208;2023-04-23T03:55:26;27.00;;;10.97;;
64957;SDS011;51486;50.232;19.208;2023-04-23T03:58:12;17.83;;;10.27;;
64957;SDS011;51486;50.232;19.208;2023-04-23T04:00:58;21.03;;;8.53;;
64957;SDS011;51486;50.232;19.208;2023-04-23T04:03:43;17.37;;;8.20;;
64957;SDS011;51486;50.232;19.208;2023-04-23T04:06:30;20.33;;;8.47;;
64957;SDS011;51486;50.232;19.208;2023-04-23T04:09:16;21.80;;;8.60;;
64957;SDS011;51486;50.232;19.208;2023-04-23T04:12:02;16.27;;;7.57;;
64957;SDS011;51486;50.232;19.208;2023-04-23T04:14:48;16.53;;;8.43;;
64957;SDS011;51486;50.232;19.208;2023-04-23T04:17:34;15.67;;;8.53;;
64957;SDS011;51486;50.232;19.208;2023-04-23T04:20:21;18.50;;;7.70;;
64957;SDS011;51486;50.232;19.208;2023-04-23T04:23:07;15.93;;;8.23;;
64957;SDS011;51486;50.232;19.208;2023-04-23T04:25:52;19.23;;;7.47;;
64957;SDS011;51486;50.232;19.208;2023-04-23T04:28:40;18.60;;;8.07;;
64957;SDS011;51486;50.232;19.208;2023-04-23T04:31:27;15.00;;;7.40;;
64957;SDS011;51486;50.232;19.208;2023-04-23T04:34:13;17.90;;;8.77;;
64957;SDS011;51486;50.232;19.208;2023-04-23T04:36:59;20.00;;;9.00;;
64957;SDS011;51486;50.232;19.208;2023-04-23T04:39:45;18.00;;;8.63;;
64957;SDS011;51486;50.232;19.208;2023-04-23T04:42:31;15.13;;;7.30;;
64957;SDS011;51486;50.232;19.208;2023-04-23T04:45:16;18.03;;;7.90;;
64957;SDS011;51486;50.232;19.208;2023-04-23T04:48:03;16.63;;;7.60;;
64957;SDS011;51486;50.232;19.208;2023-04-23T04:50:50;16.13;;;7.53;;
64957;SDS011;51486;50.232;19.208;2023-04-23T04:53:36;16.27;;;7.63;;
64957;SDS011;51486;50.232;19.208;2023-04-23T04:56:22;19.60;;;9.33;;
64957;SDS011;51486;50.232;19.208;2023-04-23T04:59:08;24.00;;;8.27;;
64957;SDS011;51486;50.232;19.208;2023-04-23T05:01:54;19.20;;;7.53;;
64957;SDS011;51486;50.232;19.208;2023-04-23T05:04:40;16.67;;;7.67;;
64957;SDS011;51486;50.232;19.208;2023-04-23T05:07:25;22.67;;;9.53;;
64957;SDS011;51486;50.232;19.208;2023-04-23T05:10:13;22.33;;;9.27;;
64957;SDS011;51486;50.232;19.208;2023-04-23T05:12:59;34.57;;;11.63;;
64957;SDS011;51486;50.232;19.208;2023-04-23T05:15:45;22.00;;;9.37;;
64957;SDS011;51486;50.232;19.208;2023-04-23T05:18:31;23.93;;;9.03;;
64957;SDS011;51486;50.232;19.208;2023-04-23T05:21:16;20.37;;;9.60;;
64957;SDS011;51486;50.232;19.208;2023-04-23T05:24:03;22.03;;;9.93;;
64957;SDS011;51486;50.232;19.208;2023-04-23T05:26:50;27.80;;;12.13;;
64957;SDS011;51486;50.232;19.208;2023-04-23T05:29:36;32.20;;;11.47;;
64957;SDS011;51486;50.232;19.208;2023-04-23T05:32:22;28.03;;;10.37;;
64957;SDS011;51486;50.232;19.208;2023-04-23T05:35:08;25.60;;;11.57;;
64957;SDS011;51486;50.232;19.208;2023-04-23T05:37:53;19.37;;;10.13;;
64957;SDS011;51486;50.232;19.208;2023-04-23T05:40:39;32.17;;;10.53;;
64957;SDS011;51486;50.232;19.208;2023-04-23T05:43:25;22.37;;;10.43;;
64957;SDS011;51486;50.232;19.208;2023-04-23T05:46:11;36.70;;;11.13;;
64957;SDS011;51486;50.232;19.208;2023-04-23T05:48:56;21.93;;;9.43;;
64957;SDS011;51486;50.232;19.208;2023-04-23T05:51:42;22.70;;;9.90;;
64957;SDS011;51486;50.232;19.208;2023-04-23T05:54:28;23.17;;;9.17;;
64957;SDS011;51486;50.232;19.208;2023-04-23T05:57:14;24.07;;;8.03;;
64957;SDS011;51486;50.232;19.208;2023-04-23T05:59:59;28.90;;;8.50;;
64957;SDS011;51486;50.232;19.208;2023-04-23T06:02:45;15.13;;;6.97;;
64957;SDS011;51486;50.232;19.208;2023-04-23T06:05:32;17.93;;;7.10;;
64957;SDS011;51486;50.232;19.208;2023-04-23T06:08:18;14.17;;;8.07;;
64957;SDS011;51486;50.232;19.208;2023-04-23T06:11:04;20.83;;;7.10;;
64957;SDS011;51486;50.232;19.208;2023-04-23T06:13:51;11.50;;;6.60;;
64957;SDS011;51486;50.232;19.208;2023-04-23T06:16:38;19.63;;;6.77;;
64957;SDS011;51486;50.232;19.208;2023-04-23T06:19:23;16.77;;;5.90;;
64957;SDS011;51486;50.232;19.208;2023-04-23T06:22:11;17.50;;;6.70;;
64957;SDS011;51486;50.232;19.208;2023-04-23T06:24:57;12.73;;;6.07;;
64957;SDS011;51486;50.232;19.208;2023-04-23T06:27:43;9.73;;;4.33;;
64957;SDS011;51486;50.232;19.208;2023-04-23T06:30:28;8.30;;;3.30;;
64957;SDS011;51486;50.232;19.208;2023-04-23T06:33:14;10.13;;;4.90;;
64957;SDS011;51486;50.232;19.208;2023-04-23T06:36:00;6.87;;;3.70;;
64957;SDS011;51486;50.232;19.208;2023-04-23T06:38:45;7.07;;;4.13;;
64957;SDS011;51486;50.232;19.208;2023-04-23T06:41:31;12.30;;;4.63;;
64957;SDS011;51486;50.232;19.208;2023-04-23T06:44:17;15.20;;;4.17;;
64957;SDS011;51486;50.232;19.208;2023-04-23T06:47:03;8.27;;;3.90;;
64957;SDS011;51486;50.232;19.208;2023-04-23T06:49:48;8.93;;;4.33;;
64957;SDS011;51486;50.232;19.208;2023-04-23T06:52:34;9.67;;;5.57;;
64957;SDS011;51486;50.232;19.208;2023-04-23T06:55:20;10.17;;;4.33;;
64957;SDS011;51486;50.232;19.208;2023-04-23T06:58:10;5.57;;;3.70;;
64957;SDS011;51486;50.232;19.208;2023-04-23T07:00:57;6.47;;;4.20;;
64957;SDS011;51486;50.232;19.208;2023-04-23T07:03:48;6.60;;;3.73;;
64957;SDS011;51486;50.232;19.208;2023-04-23T07:06:35;10.73;;;4.43;;
64957;SDS011;51486;50.232;19.208;2023-04-23T07:09:22;6.97;;;3.97;;
64957;SDS011;51486;50.232;19.208;2023-04-23T07:12:08;8.07;;;3.60;;
64957;SDS011;51486;50.232;19.208;2023-04-23T07:14:55;12.23;;;4.43;;
64957;SDS011;51486;50.232;19.208;2023-04-23T07:17:41;7.53;;;3.97;;
64957;SDS011;51486;50.232;19.208;2023-04-23T07:20:27;6.63;;;3.53;;
64957;SDS011;51486;50.232;19.208;2023-04-23T07:23:13;11.83;;;3.63;;
64957;SDS011;51486;50.232;19.208;2023-04-23T07:25:59;8.50;;;3.57;;
64957;SDS011;51486;50.232;19.208;2023-04-23T07:28:44;10.47;;;3.67;;
64957;SDS011;51486;50.232;19.208;2023-04-23T07:31:32;4.67;;;2.60;;
64957;SDS011;51486;50.232;19.208;2023-04-23T07:34:18;6.23;;;2.97;;
64957;SDS011;51486;50.232;19.208;2023-04-23T07:37:04;5.53;;;3.43;;
64957;SDS011;51486;50.232;19.208;2023-04-23T07:39:50;4.97;;;2.87;;
64957;SDS011;51486;50.232;19.208;2023-04-23T07:42:39;4.63;;;2.90;;
64957;SDS011;51486;50.232;19.208;2023-04-23T07:45:25;4.73;;;2.77;;
64957;SDS011;51486;50.232;19.208;2023-04-23T07:48:11;5.17;;;3.00;;
64957;SDS011;51486;50.232;19.208;2023-04-23T07:50:57;4.83;;;3.10;;
64957;SDS011;51486;50.232;19.208;2023-04-23T07:53:42;5.03;;;2.87;;
64957;SDS011;51486;50.232;19.208;2023-04-23T07:56:28;18.57;;;3.07;;
64957;SDS011;51486;50.232;19.208;2023-04-23T07:59:16;4.43;;;2.33;;
64957;SDS011;51486;50.232;19.208;2023-04-23T08:02:02;2.97;;;2.30;;
64957;SDS011;51486;50.232;19.208;2023-04-23T08:04:48;6.40;;;3.07;;
64957;SDS011;51486;50.232;19.208;2023-04-23T08:07:34;4.33;;;2.27;;
64957;SDS011;51486;50.232;19.208;2023-04-23T08:10:19;2.80;;;2.30;;
64957;SDS011;51486;50.232;19.208;2023-04-23T08:13:05;2.83;;;2.10;;
64957;SDS011;51486;50.232;19.208;2023-04-23T08:15:51;9.23;;;3.30;;
64957;SDS011;51486;50.232;19.208;2023-04-23T08:18:37;5.53;;;2.40;;
64957;SDS011;51486;50.232;19.208;2023-04-23T08:21:22;5.07;;;2.20;;
64957;SDS011;51486;50.232;19.208;2023-04-23T08:24:09;2.63;;;1.53;;
64957;SDS011;51486;50.232;19.208;2023-04-23T08:26:55;10.57;;;2.80;;
64957;SDS011;51486;50.232;19.208;2023-04-23T08:29:41;2.93;;;2.10;;
64957;SDS011;51486;50.232;19.208;2023-04-23T08:32:27;8.17;;;2.90;;
64957;SDS011;51486;50.232;19.208;2023-04-23T08:35:15;3.63;;;2.40;;
64957;SDS011;51486;50.232;19.208;2023-04-23T08:38:01;3.73;;;2.23;;
64957;SDS011;51486;50.232;19.208;2023-04-23T08:40:46;4.20;;;2.63;;
64957;SDS011;51486;50.232;19.208;2023-04-23T08:43:37;4.87;;;2.73;;
64957;SDS011;51486;50.232;19.208;2023-04-23T08:46:26;3.67;;;1.73;;
64957;SDS011;51486;50.232;19.208;2023-04-23T08:49:17;3.47;;;2.40;;
64957;SDS011;51486;50.232;19.208;2023-04-23T08:52:09;7.70;;;2.37;;
64957;SDS011;51486;50.232;19.208;2023-04-23T08:55:03;2.43;;;2.13;;
64957;SDS011;51486;50.232;19.208;2023-04-23T08:57:56;2.37;;;1.87;;
64957;SDS011;51486;50.232;19.208;2023-04-23T09:00:42;4.83;;;2.47;;
64957;SDS011;51486;50.232;19.208;2023-04-23T09:03:30;5.20;;;2.77;;
64957;SDS011;51486;50.232;19.208;2023-04-23T09:06:15;2.40;;;1.87;;
64957;SDS011;51486;50.232;19.208;2023-04-23T09:09:02;4.30;;;2.10;;
64957;SDS011;51486;50.232;19.208;2023-04-23T09:11:49;2.23;;;1.53;;
64957;SDS011;51486;50.232;19.208;2023-04-23T09:14:35;10.20;;;2.10;;
64957;SDS011;51486;50.232;19.208;2023-04-23T09:17:21;11.13;;;2.30;;
64957;SDS011;51486;50.232;19.208;2023-04-23T09:20:13;1.93;;;1.43;;
64957;SDS011;51486;50.232;19.208;2023-04-23T09:22:59;2.13;;;1.57;;
64957;SDS011;51486;50.232;19.208;2023-04-23T09:25:51;2.30;;;1.70;;
64957;SDS011;51486;50.232;19.208;2023-04-23T09:28:37;4.93;;;1.90;;
64957;SDS011;51486;50.232;19.208;2023-04-23T09:31:23;1.80;;;1.33;;
64957;SDS011;51486;50.232;19.208;2023-04-23T09:34:08;14.00;;;2.30;;
64957;SDS011;51486;50.232;19.208;2023-04-23T09:36:54;4.40;;;1.97;;
64957;SDS011;51486;50.232;19.208;2023-04-23T09:39:40;1.87;;;1.57;;
64957;SDS011;51486;50.232;19.208;2023-04-23T09:42:26;3.13;;;2.23;;
64957;SDS011;51486;50.232;19.208;2023-04-23T09:45:14;2.20;;;1.63;;
64957;SDS011;51486;50.232;19.208;2023-04-23T09:48:00;1.67;;;1.53;;
64957;SDS011;51486;50.232;19.208;2023-04-23T09:50:46;2.80;;;1.83;;
64957;SDS011;51486;50.232;19.208;2023-04-23T09:53:39;1.93;;;1.33;;
64957;SDS011;51486;50.232;19.208;2023-04-23T09:56:28;5.47;;;2.00;;
64957;SDS011;51486;50.232;19.208;2023-04-23T09:59:25;2.47;;;1.00;;
64957;SDS011;51486;50.232;19.208;2023-04-23T10:02:12;3.97;;;1.70;;
64957;SDS011;51486;50.232;19.208;2023-04-23T10:04:58;2.73;;;1.23;;
64957;SDS011;51486;50.232;19.208;2023-04-23T10:07:44;2.17;;;1.60;;
64957;SDS011;51486;50.232;19.208;2023-04-23T10:10:37;2.47;;;1.37;;
64957;SDS011;51486;50.232;19.208;2023-04-23T10:13:23;2.00;;;1.30;;
64957;SDS011;51486;50.232;19.208;2023-04-23T10:16:10;2.40;;;1.47;;
64957;SDS011;51486;50.232;19.208;2023-04-23T10:18:56;2.63;;;1.60;;
64957;SDS011;51486;50.232;19.208;2023-04-23T10:21:45;4.97;;;1.70;;
64957;SDS011;51486;50.232;19.208;2023-04-23T10:24:34;2.03;;;1.53;;
64957;SDS011;51486;50.232;19.208;2023-04-23T10:27:28;5.53;;;1.70;;
64957;SDS011;51486;50.232;19.208;2023-04-23T10:30:15;3.07;;;2.10;;
64957;SDS011;51486;50.232;19.208;2023-04-23T10:33:01;4.32;;;1.90;;
64957;SDS011;51486;50.232;19.208;2023-04-23T10:35:48;1.60;;;1.25;;
64957;SDS011;51486;50.232;19.208;2023-04-23T10:38:35;3.70;;;1.60;;
64957;SDS011;51486;50.232;19.208;2023-04-23T10:41:21;2.73;;;1.40;;
64957;SDS011;51486;50.232;19.208;2023-04-23T10:44:12;3.13;;;1.50;;
64957;SDS011;51486;50.232;19.208;2023-04-23T10:46:58;2.67;;;1.70;;
64957;SDS011;51486;50.232;19.208;2023-04-23T10:49:47;2.85;;;2.00;;
64957;SDS011;51486;50.232;19.208;2023-04-23T10:52:33;3.10;;;1.17;;
64957;SDS011;51486;50.232;19.208;2023-04-23T10:55:21;1.05;;;0.95;;
64957;SDS011;51486;50.232;19.208;2023-04-23T10:58:08;1.75;;;1.23;;
64957;SDS011;51486;50.232;19.208;2023-04-23T11:00:54;1.55;;;1.25;;
64957;SDS011;51486;50.232;19.208;2023-04-23T11:03:40;1.73;;;1.33;;
64957;SDS011;51486;50.232;19.208;2023-04-23T11:09:42;1.90;;;1.30;;
64957;SDS011;51486;50.232;19.208;2023-04-23T11:12:33;3.08;;;1.20;;
64957;SDS011;51486;50.232;19.208;2023-04-23T11:15:19;1.67;;;1.23;;
64957;SDS011;51486;50.232;19.208;2023-04-23T11:18:05;3.67;;;1.17;;
64957;SDS011;51486;50.232;19.208;2023-04-23T11:20:51;2.35;;;1.25;;
64957;SDS011;51486;50.232;19.208;2023-04-23T11:23:41;2.25;;;1.27;;
64957;SDS011;51486;50.232;19.208;2023-04-23T11:26:31;1.85;;;0.98;;
64957;SDS011;51486;50.232;19.208;2023-04-23T11:29:22;1.38;;;1.27;;
64957;SDS011;51486;50.232;19.208;2023-04-23T11:32:10;2.45;;;1.50;;
64957;SDS011;51486;50.232;19.208;2023-04-23T11:34:57;1.30;;;0.98;;
64957;SDS011;51486;50.232;19.208;2023-04-23T11:37:47;4.43;;;1.70;;
64957;SDS011;51486;50.232;19.208;2023-04-23T11:40:34;6.57;;;2.00;;
64957;SDS011;51486;50.232;19.208;2023-04-23T11:43:19;2.88;;;1.45;;
64957;SDS011;51486;50.232;19.208;2023-04-23T11:46:05;3.00;;;1.73;;
64957;SDS011;51486;50.232;19.208;2023-04-23T11:48:51;2.53;;;1.67;;
64957;SDS011;51486;50.232;19.208;2023-04-23T11:51:40;3.42;;;2.22;;
64957;SDS011;51486;50.232;19.208;2023-04-23T11:54:28;8.93;;;1.90;;
64957;SDS011;51486;50.232;19.208;2023-04-23T11:57:14;2.67;;;1.45;;
64957;SDS011;51486;50.232;19.208;2023-04-23T12:00:21;1.55;;;1.15;;
64957;SDS011;51486;50.232;19.208;2023-04-23T12:03:09;1.98;;;1.38;;
64957;SDS011;51486;50.232;19.208;2023-04-23T12:05:54;4.45;;;1.48;;
64957;SDS011;51486;50.232;19.208;2023-04-23T12:08:41;2.67;;;1.20;;
64957;SDS011;51486;50.232;19.208;2023-04-23T12:11:27;2.97;;;1.45;;
64957;SDS011;51486;50.232;19.208;2023-04-23T12:14:13;2.20;;;1.52;;
64957;SDS011;51486;50.232;19.208;2023-04-23T12:17:07;1.45;;;1.23;;
64957;SDS011;51486;50.232;19.208;2023-04-23T12:19:54;5.43;;;1.67;;
64957;SDS011;51486;50.232;19.208;2023-04-23T12:22:40;2.50;;;1.20;;
64957;SDS011;51486;50.232;19.208;2023-04-23T12:25:26;3.35;;;1.70;;
64957;SDS011;51486;50.232;19.208;2023-04-23T12:28:11;2.42;;;1.10;;
64957;SDS011;51486;50.232;19.208;2023-04-23T12:30:58;2.83;;;1.33;;
64957;SDS011;51486;50.232;19.208;2023-04-23T12:33:45;2.00;;;1.30;;
64957;SDS011;51486;50.232;19.208;2023-04-23T12:36:31;2.10;;;1.45;;
64957;SDS011;51486;50.232;19.208;2023-04-23T12:42:40;1.63;;;1.13;;
64957;SDS011;51486;50.232;19.208;2023-04-23T12:45:26;3.05;;;1.50;;
64957;SDS011;51486;50.232;19.208;2023-04-23T12:48:21;1.63;;;1.30;;
64957;SDS011;51486;50.232;19.208;2023-04-23T12:51:07;3.40;;;1.45;;
64957;SDS011;51486;50.232;19.208;2023-04-23T12:53:52;6.50;;;2.03;;
64957;SDS011;51486;50.232;19.208;2023-04-23T12:56:38;2.15;;;1.25;;
64957;SDS011;51486;50.232;19.208;2023-04-23T12:59:24;1.10;;;0.90;;
64957;SDS011;51486;50.232;19.208;2023-04-23T13:02:10;6.75;;;1.38;;
64957;SDS011;51486;50.232;19.208;2023-04-23T13:04:59;2.00;;;1.50;;
64957;SDS011;51486;50.232;19.208;2023-04-23T13:07:45;2.72;;;1.55;;
64957;SDS011;51486;50.232;19.208;2023-04-23T13:10:30;2.05;;;1.40;;
64957;SDS011;51486;50.232;19.208;2023-04-23T13:13:17;2.13;;;1.20;;
64957;SDS011;51486;50.232;19.208;2023-04-23T13:16:04;1.92;;;1.27;;
64957;SDS011;51486;50.232;19.208;2023-04-23T13:18:50;4.88;;;1.80;;
64957;SDS011;51486;50.232;19.208;2023-04-23T13:21:37;4.78;;;2.08;;
64957;SDS011;51486;50.232;19.208;2023-04-23T13:24:22;3.95;;;1.60;;
64957;SDS011;51486;50.232;19.208;2023-04-23T13:27:08;3.65;;;1.83;;
64957;SDS011;51486;50.232;19.208;2023-04-23T13:29:56;3.47;;;1.90;;
64957;SDS011;51486;50.232;19.208;2023-04-23T13:32:51;1.42;;;1.00;;
64957;SDS011;51486;50.232;19.208;2023-04-23T13:35:37;2.85;;;1.77;;
64957;SDS011;51486;50.232;19.208;2023-04-23T13:38:24;2.30;;;1.40;;
64957;SDS011;51486;50.232;19.208;2023-04-23T13:41:11;1.60;;;1.25;;
64957;SDS011;51486;50.232;19.208;2023-04-23T13:43:57;2.25;;;1.50;;
64957;SDS011;51486;50.232;19.208;2023-04-23T13:46:42;3.47;;;1.30;;
64957;SDS011;51486;50.232;19.208;2023-04-23T13:49:28;2.85;;;1.80;;
64957;SDS011;51486;50.232;19.208;2023-04-23T13:52:14;3.73;;;1.80;;
64957;SDS011;51486;50.232;19.208;2023-04-23T13:54:59;2.45;;;1.70;;
64957;SDS011;51486;50.232;19.208;2023-04-23T13:57:47;2.60;;;1.77;;
64957;SDS011;51486;50.232;19.208;2023-04-23T14:00:33;2.47;;;1.33;;
64957;SDS011;51486;50.232;19.208;2023-04-23T14:03:19;2.13;;;1.23;;
64957;SDS011;51486;50.232;19.208;2023-04-23T14:06:06;3.57;;;1.80;;
64957;SDS011;51486;50.232;19.208;2023-04-23T14:08:53;1.43;;;1.27;;
64957;SDS011;51486;50.232;19.208;2023-04-23T14:11:39;3.90;;;1.50;;
64957;SDS011;51486;50.232;19.208;2023-04-23T14:14:25;1.70;;;1.37;;
64957;SDS011;51486;50.232;19.208;2023-04-23T14:17:11;3.70;;;1.27;;
64957;SDS011;51486;50.232;19.208;2023-04-23T14:19:57;2.23;;;1.30;;
64957;SDS011;51486;50.232;19.208;2023-04-23T14:22:42;5.37;;;1.57;;
64957;SDS011;51486;50.232;19.208;2023-04-23T14:25:34;2.13;;;1.40;;
64957;SDS011;51486;50.232;19.208;2023-04-23T14:28:39;3.43;;;1.53;;
64957;SDS011;51486;50.232;19.208;2023-04-23T14:31:30;2.63;;;1.50;;
64957;SDS011;51486;50.232;19.208;2023-04-23T14:34:16;13.40;;;1.38;;
64957;SDS011;51486;50.232;19.208;2023-04-23T14:37:03;2.33;;;1.50;;
64957;SDS011;51486;50.232;19.208;2023-04-23T14:39:48;1.55;;;1.13;;
64957;SDS011;51486;50.232;19.208;2023-04-23T14:42:34;2.63;;;1.83;;
64957;SDS011;51486;50.232;19.208;2023-04-23T14:45:20;3.58;;;1.73;;
64957;SDS011;51486;50.232;19.208;2023-04-23T14:48:05;3.47;;;1.60;;
64957;SDS011;51486;50.232;19.208;2023-04-23T14:50:51;3.58;;;2.45;;
64957;SDS011;51486;50.232;19.208;2023-04-23T14:53:37;5.83;;;2.10;;
64957;SDS011;51486;50.232;19.208;2023-04-23T14:56:23;7.25;;;1.92;;
64957;SDS011;51486;50.232;19.208;2023-04-23T14:59:09;2.00;;;1.30;;
64957;SDS011;51486;50.232;19.208;2023-04-23T15:01:55;2.67;;;1.67;;
64957;SDS011;51486;50.232;19.208;2023-04-23T15:04:41;3.97;;;1.70;;
64957;SDS011;51486;50.232;19.208;2023-04-23T15:07:27;3.60;;;1.93;;
64957;SDS011;51486;50.232;19.208;2023-04-23T15:10:13;3.23;;;1.83;;
64957;SDS011;51486;50.232;19.208;2023-04-23T15:13:05;2.17;;;1.47;;
64957;SDS011;51486;50.232;19.208;2023-04-23T15:15:54;3.23;;;1.80;;
64957;SDS011;51486;50.232;19.208;2023-04-23T15:18:47;3.70;;;1.97;;
64957;SDS011;51486;50.232;19.208;2023-04-23T15:21:32;3.60;;;1.87;;
64957;SDS011;51486;50.232;19.208;2023-04-23T15:24:19;2.43;;;1.43;;
64957;SDS011;51486;50.232;19.208;2023-04-23T15:27:05;2.00;;;1.67;;
64957;SDS011;51486;50.232;19.208;2023-04-23T15:29:52;2.90;;;1.33;;
64957;SDS011;51486;50.232;19.208;2023-04-23T15:32:38;1.93;;;1.13;;
64957;SDS011;51486;50.232;19.208;2023-04-23T15:35:24;1.60;;;1.40;;
64957;SDS011;51486;50.232;19.208;2023-04-23T15:38:11;2.43;;;1.30;;
64957;SDS011;51486;50.232;19.208;2023-04-23T15:40:56;1.80;;;1.03;;
64957;SDS011;51486;50.232;19.208;2023-04-23T15:43:42;4.37;;;1.70;;
64957;SDS011;51486;50.232;19.208;2023-04-23T15:46:28;3.87;;;1.20;;
64957;SDS011;51486;50.232;19.208;2023-04-23T15:49:14;3.27;;;1.50;;
64957;SDS011;51486;50.232;19.208;2023-04-23T15:51:59;2.30;;;1.47;;
64957;SDS011;51486;50.232;19.208;2023-04-23T15:54:45;4.73;;;1.60;;
64957;SDS011;51486;50.232;19.208;2023-04-23T15:57:31;2.30;;;1.50;;
64957;SDS011;51486;50.232;19.208;2023-04-23T16:00:17;1.87;;;1.50;;
64957;SDS011;51486;50.232;19.208;2023-04-23T16:03:03;2.70;;;1.73;;
64957;SDS011;51486;50.232;19.208;2023-04-23T16:05:50;3.20;;;1.60;;
64957;SDS011;51486;50.232;19.208;2023-04-23T16:08:36;1.90;;;1.40;;
64957;SDS011;51486;50.232;19.208;2023-04-23T16:11:22;1.80;;;1.33;;
64957;SDS011;51486;50.232;19.208;2023-04-23T16:14:11;6.63;;;1.57;;
64957;SDS011;51486;50.232;19.208;2023-04-23T16:16:57;1.67;;;1.40;;
64957;SDS011;51486;50.232;19.208;2023-04-23T16:19:43;2.83;;;2.10;;
64957;SDS011;51486;50.232;19.208;2023-04-23T16:22:30;3.53;;;2.03;;
64957;SDS011;51486;50.232;19.208;2023-04-23T16:25:16;3.67;;;1.77;;
64957;SDS011;51486;50.232;19.208;2023-04-23T16:28:02;2.70;;;1.80;;
64957;SDS011;51486;50.232;19.208;2023-04-23T16:30:49;3.37;;;1.83;;